Time;durP1;ratioP1;P1;durP2;ratioP2;P2;SDS_P1;SDS_P2;PMS_P1;PMS_P2;Temp;Humidity;BMP_temperature;BMP_pressure;BME280_temperature;BME280_humidity;BME280_pressure;Samples;Min_cycle;Max_cycle;Signal;HPM_P1;HPM_P2
2023/12/12 00:00:43;;;;;;;1.38;1.13;;;;;;;21.07;36.90;99745.16;4589220;27;20671;-56
2023/12/12 00:02:53;;;;;;;1.60;1.15;;;;;;;21.07;37.00;99750.91;4589041;27;22610;-56
2023/12/12 00:05:04;;;;;;;1.25;0.80;;;;;;;21.07;36.65;99748.03;4590145;27;20806;-55
2023/12/12 00:07:14;;;;;;;1.40;1.00;;;;;;;21.06;36.95;99744.31;4588170;27;20035;-57
2023/12/12 00:09:25;;;;;;;1.30;0.82;;;;;;;21.06;36.66;99749.25;4576653;27;20031;-54
2023/12/12 00:11:35;;;;;;;1.02;0.90;;;;;;;21.06;36.73;99744.31;4590484;27;26588;-56
2023/12/12 00:13:46;;;;;;;1.00;0.80;;;;;;;21.05;36.88;99745.56;4588292;27;20119;-54
2023/12/12 00:15:57;;;;;;;1.27;0.80;;;;;;;21.05;36.99;99736.09;4590296;27;20079;-56
2023/12/12 00:18:07;;;;;;;1.42;1.00;;;;;;;21.06;36.99;99732.03;4589397;27;20143;-55
2023/12/12 00:20:18;;;;;;;1.13;0.90;;;;;;;21.06;37.21;99741.47;4588464;27;20040;-56
2023/12/12 00:22:28;;;;;;;1.25;0.82;;;;;;;21.05;37.06;99742.69;4588749;27;20036;-56
2023/12/12 00:24:38;;;;;;;1.20;1.00;;;;;;;21.04;37.29;99741.00;4587878;27;27362;-56
2023/12/12 00:26:49;;;;;;;1.02;0.90;;;;;;;21.05;37.29;99736.94;4588867;27;20043;-53
2023/12/12 00:28:59;;;;;;;1.95;1.00;;;;;;;21.04;37.51;99743.88;4587918;27;20043;-55
2023/12/12 00:31:10;;;;;;;1.10;0.85;;;;;;;21.04;37.15;99734.47;4587316;27;20499;-56
2023/12/12 00:33:22;;;;;;;1.10;1.00;;;;;;;21.04;37.39;99734.47;4588212;27;20036;-56
2023/12/12 00:35:32;;;;;;;1.52;1.00;;;;;;;21.03;37.13;99745.09;4588277;27;20063;-57
2023/12/12 00:37:43;;;;;;;1.02;0.90;;;;;;;21.04;37.10;99741.00;4588980;27;20075;-56
2023/12/12 00:39:53;;;;;;;2.05;1.10;;;;;;;21.04;37.27;99740.22;4588058;27;20051;-55
2023/12/12 00:42:04;;;;;;;1.00;0.90;;;;;;;21.03;37.64;99739.38;4571790;27;20127;-56
2023/12/12 00:44:14;;;;;;;1.00;0.90;;;;;;;21.03;37.17;99739.38;4587685;27;20479;-53
2023/12/12 00:46:24;;;;;;;1.40;1.10;;;;;;;21.04;37.30;99746.75;4589967;27;20079;-56
2023/12/12 00:48:35;;;;;;;1.17;1.08;;;;;;;21.04;37.62;99745.94;4588252;27;20063;-56
2023/12/12 00:50:45;;;;;;;1.38;1.20;;;;;;;21.03;37.48;99742.25;4589580;27;20127;-56
2023/12/12 00:52:56;;;;;;;1.10;1.00;;;;;;;21.03;37.20;99747.97;4587491;27;20027;-54
2023/12/12 00:55:06;;;;;;;1.67;1.20;;;;;;;21.02;37.35;99743.47;4587953;27;20956;-53
2023/12/12 00:57:17;;;;;;;1.40;1.00;;;;;;;21.02;37.45;99743.47;4586537;27;20108;-54
2023/12/12 00:59:27;;;;;;;1.00;0.90;;;;;;;21.02;37.48;99740.59;4589119;27;20957;-54
2023/12/12 01:01:37;;;;;;;1.30;1.10;;;;;;;21.03;37.35;99750.00;4587412;27;20373;-56
2023/12/12 01:03:48;;;;;;;1.35;1.15;;;;;;;21.03;37.57;99750.84;4589273;27;23185;-54
2023/12/12 01:05:58;;;;;;;1.67;1.00;;;;;;;21.02;37.21;99746.34;4588156;27;20122;-56
2023/12/12 01:08:09;;;;;;;0.98;0.90;;;;;;;21.03;37.48;99745.09;4589016;27;20044;-56
2023/12/12 01:10:20;;;;;;;1.52;1.10;;;;;;;21.02;37.47;99743.47;4589296;27;20096;-53
2023/12/12 01:12:30;;;;;;;1.23;1.13;;;;;;;21.03;37.17;99747.13;4589327;27;20779;-56
2023/12/12 01:14:40;;;;;;;1.55;1.00;;;;;;;21.03;37.43;99745.09;4588889;27;20036;-55
2023/12/12 01:16:51;;;;;;;1.10;1.00;;;;;;;21.02;37.45;99731.16;4589571;27;20061;-57
2023/12/12 01:19:02;;;;;;;1.45;1.10;;;;;;;21.03;37.22;99745.09;4587664;27;20032;-57
2023/12/12 01:21:12;;;;;;;1.00;0.90;;;;;;;21.02;37.64;99737.72;4587275;27;20044;-57
2023/12/12 01:23:23;;;;;;;1.15;1.00;;;;;;;21.01;37.70;99741.78;4588577;27;20583;-57
2023/12/12 01:25:33;;;;;;;1.10;0.95;;;;;;;21.02;37.23;99749.22;4590379;27;20074;-56
2023/12/12 01:27:44;;;;;;;1.02;0.93;;;;;;;21.03;37.30;99744.28;4587831;27;20036;-55
2023/12/12 01:29:55;;;;;;;1.02;0.93;;;;;;;21.02;37.30;99740.59;4586115;27;20044;-57
2023/12/12 01:32:05;;;;;;;0.80;0.80;;;;;;;21.01;37.45;99736.06;4587244;27;20106;-56
2023/12/12 01:34:16;;;;;;;1.45;1.10;;;;;;;21.02;36.98;99748.38;4586970;27;20106;-56
2023/12/12 01:36:26;;;;;;;2.00;1.13;;;;;;;21.01;37.38;99741.78;4587306;27;20043;-54
2023/12/12 01:38:37;;;;;;;1.60;1.30;;;;;;;21.01;37.46;99736.06;4586866;27;20048;-55
2023/12/12 01:40:48;;;;;;;1.58;1.40;;;;;;;21.01;37.29;99744.66;4588158;27;20035;-56
2023/12/12 01:43:05;;;;;;;2.72;1.45;;;;;;;21.00;37.54;99745.91;4586994;27;20044;-55
2023/12/12 01:45:15;;;;;;;2.72;1.83;;;;;;;21.01;37.50;99747.53;4571140;27;20214;-56
2023/12/12 01:47:27;;;;;;;2.63;1.48;;;;;;;21.01;37.55;99746.72;4588138;27;20109;-53
2023/12/12 01:49:38;;;;;;;1.75;1.45;;;;;;;21.01;37.54;99750.41;4586920;27;20063;-55
2023/12/12 01:51:48;;;;;;;2.78;1.70;;;;;;;21.01;37.47;99753.28;4586833;27;20035;-56
2023/12/12 01:54:02;;;;;;;3.80;1.77;;;;;;;21.01;37.74;99747.53;4588731;27;20043;-54
2023/12/12 01:56:14;;;;;;;2.45;1.70;;;;;;;21.01;37.27;99752.47;4587128;27;20051;-56
2023/12/12 01:58:25;;;;;;;2.50;1.67;;;;;;;21.01;37.45;99758.22;4586776;27;20698;-55
2023/12/12 02:00:36;;;;;;;3.15;1.83;;;;;;;21.01;37.34;99747.53;4588396;27;20032;-56
2023/12/12 02:02:47;;;;;;;2.70;1.55;;;;;;;21.01;37.40;99756.16;4585909;27;20023;-57
2023/12/12 02:04:57;;;;;;;2.00;1.58;;;;;;;21.00;37.51;99757.38;4586527;27;20488;-56
2023/12/12 02:07:09;;;;;;;2.83;1.80;;;;;;;21.00;37.38;99754.50;4585394;27;20024;-55
2023/12/12 02:09:20;;;;;;;2.90;1.67;;;;;;;21.00;37.64;99756.53;4589517;27;20771;-57
2023/12/12 02:11:30;;;;;;;2.83;1.70;;;;;;;21.00;37.77;99751.63;4587384;27;20039;-56
2023/12/12 02:13:41;;;;;;;2.63;1.80;;;;;;;21.00;37.42;99763.09;4589155;27;20040;-57
2023/12/12 02:15:51;;;;;;;3.72;1.80;;;;;;;20.99;37.63;99761.47;4590383;27;20417;-56
2023/12/12 02:18:01;;;;;;;2.72;1.67;;;;;;;20.98;37.15;99765.53;4590016;27;20044;-54
2023/12/12 02:20:12;;;;;;;2.80;1.73;;;;;;;21.00;37.39;99751.63;4591717;27;20039;-56
2023/12/12 02:22:22;;;;;;;2.58;1.80;;;;;;;21.00;37.26;99759.41;4590747;27;20044;-54
2023/12/12 02:24:33;;;;;;;3.08;1.80;;;;;;;21.00;37.06;99747.94;4591426;27;20032;-57
2023/12/12 02:26:43;;;;;;;2.22;1.60;;;;;;;20.99;37.01;99755.72;4591277;27;20126;-56
2023/12/12 02:28:53;;;;;;;2.58;1.60;;;;;;;21.00;37.02;99750.78;4590609;27;20047;-57
2023/12/12 02:31:04;;;;;;;2.42;1.77;;;;;;;20.99;37.15;99737.69;4590568;27;20039;-55
2023/12/12 02:33:14;;;;;;;2.60;1.83;;;;;;;21.00;37.43;99742.19;4589800;27;20074;-57
2023/12/12 02:35:25;;;;;;;4.05;2.22;;;;;;;20.99;37.12;99740.53;4589387;27;20040;-56
2023/12/12 02:37:35;;;;;;;3.08;2.35;;;;;;;20.98;36.96;99741.78;4583387;27;20043;-57
2023/12/12 02:39:46;;;;;;;3.33;2.33;;;;;;;20.98;37.62;99742.59;4588708;27;20071;-56
2023/12/12 02:41:56;;;;;;;3.95;2.47;;;;;;;20.99;37.24;99738.50;4590101;27;20048;-57
2023/12/12 02:44:06;;;;;;;4.15;2.15;;;;;;;20.98;37.19;99742.59;4590906;27;20039;-55
2023/12/12 02:46:17;;;;;;;2.50;1.90;;;;;;;20.99;37.36;99729.06;4590332;27;20043;-56
2023/12/12 02:48:28;;;;;;;3.00;1.77;;;;;;;20.98;36.94;99733.97;4589052;27;20562;-57
2023/12/12 02:50:38;;;;;;;3.03;1.83;;;;;;;20.96;37.25;99727.81;4591299;27;20055;-57
2023/12/12 02:52:48;;;;;;;2.17;1.60;;;;;;;20.98;37.14;99724.56;4589467;27;20408;-57
2023/12/12 02:54:59;;;;;;;2.45;1.67;;;;;;;20.97;37.13;99718.00;4591271;27;20024;-56
2023/12/12 02:57:09;;;;;;;2.65;1.50;;;;;;;20.98;37.32;99721.69;4579242;27;20035;-55
2023/12/12 02:59:19;;;;;;;2.22;1.50;;;;;;;20.98;37.47;99716.75;4589926;27;20044;-57
2023/12/12 03:01:30;;;;;;;1.85;1.30;;;;;;;20.97;37.13;99717.16;4590804;27;20437;-55
2023/12/12 03:03:40;;;;;;;2.20;1.30;;;;;;;20.97;37.27;99709.38;4590633;27;20487;-56
2023/12/12 03:05:51;;;;;;;2.03;1.35;;;;;;;20.98;37.11;99713.88;4588098;27;20035;-56
2023/12/12 03:08:01;;;;;;;2.08;1.30;;;;;;;20.97;37.34;99709.38;4589972;27;26448;-57
2023/12/12 03:10:11;;;;;;;2.10;1.55;;;;;;;20.97;37.25;99705.69;4590013;27;20040;-57
2023/12/12 03:12:22;;;;;;;1.95;1.45;;;;;;;20.98;37.34;99713.88;4591473;27;20090;-55
2023/12/12 03:14:34;;;;;;;2.00;1.40;;;;;;;20.98;37.19;99713.09;4588446;27;20043;-58
2023/12/12 03:16:45;;;;;;;2.58;1.50;;;;;;;20.97;37.27;99718.00;4590609;27;20113;-56
2023/12/12 03:18:55;;;;;;;2.28;1.25;;;;;;;20.97;37.20;99718.00;4590898;27;21115;-56
2023/12/12 03:21:06;;;;;;;1.73;1.15;;;;;;;20.97;37.25;99709.38;4588586;27;20144;-56
2023/12/12 03:23:16;;;;;;;2.25;1.23;;;;;;;20.97;36.81;99718.00;4591182;27;20051;-55
2023/12/12 03:25:26;;;;;;;2.13;1.00;;;;;;;20.97;37.05;99714.28;4589776;27;20040;-57
2023/12/12 03:27:37;;;;;;;1.30;1.00;;;;;;;20.96;37.15;99716.34;4587421;27;28495;-57
2023/12/12 03:29:47;;;;;;;2.10;1.00;;;;;;;20.98;36.74;99713.88;4591296;27;20040;-55
2023/12/12 03:31:58;;;;;;;2.13;0.90;;;;;;;20.97;36.61;99711.41;4590129;27;20032;-56
2023/12/12 03:34:08;;;;;;;1.60;0.90;;;;;;;20.97;36.60;99715.13;4588134;27;20027;-56
2023/12/12 03:36:18;;;;;;;1.52;0.90;;;;;;;20.98;36.70;99713.09;4590161;27;20488;-56
2023/12/12 03:38:29;;;;;;;1.05;0.70;;;;;;;20.97;36.86;99714.28;4588405;27;20606;-56
2023/12/12 03:40:39;;;;;;;1.40;0.90;;;;;;;20.96;36.33;99713.47;4588354;27;20047;-56
2023/12/12 03:42:49;;;;;;;1.63;0.85;;;;;;;20.97;36.26;99712.25;4590218;27;20144;-57
2023/12/12 03:45:00;;;;;;;1.20;0.70;;;;;;;20.98;36.68;99713.88;4588410;27;24000;-57
2023/12/12 03:47:10;;;;;;;1.45;0.90;;;;;;;20.97;36.08;99711.41;4590318;27;20044;-57
2023/12/12 03:49:20;;;;;;;0.68;0.60;;;;;;;20.97;36.08;99709.38;4585521;27;25892;-56
2023/12/12 03:51:31;;;;;;;1.05;0.70;;;;;;;20.97;36.61;99706.50;4589116;27;20038;-57
2023/12/12 03:53:41;;;;;;;1.58;0.85;;;;;;;20.96;35.90;99713.47;4590177;27;23893;-57
2023/12/12 03:55:52;;;;;;;1.00;0.80;;;;;;;20.97;36.29;99712.25;4591667;27;20043;-56
2023/12/12 03:58:03;;;;;;;1.10;0.70;;;;;;;20.96;36.01;99704.88;4588454;27;20450;-57
2023/12/12 04:00:14;;;;;;;0.95;0.70;;;;;;;20.97;36.09;99705.69;4588030;27;20542;-56
2023/12/12 04:02:24;;;;;;;1.35;0.70;;;;;;;20.97;35.69;99702.81;4587628;27;20032;-56
2023/12/12 04:04:34;;;;;;;1.30;0.63;;;;;;;20.97;35.57;99703.66;4590452;27;20048;-54
2023/12/12 04:06:46;;;;;;;0.82;0.70;;;;;;;20.96;35.98;99701.13;4587511;27;21751;-55
2023/12/12 04:08:57;;;;;;;1.33;0.70;;;;;;;20.97;35.60;99708.53;4589963;27;20562;-57
2023/12/12 04:11:07;;;;;;;0.90;0.77;;;;;;;20.97;35.39;99711.41;4589486;27;20031;-57
2023/12/12 04:13:17;;;;;;;0.75;0.70;;;;;;;20.97;35.65;99717.16;4589078;27;20063;-55
2023/12/12 04:15:28;;;;;;;1.45;0.77;;;;;;;20.97;35.49;99711.41;4587377;27;20040;-57
2023/12/12 04:17:38;;;;;;;1.38;0.70;;;;;;;20.97;35.49;99722.88;4589382;27;24375;-56
2023/12/12 04:19:48;;;;;;;1.00;0.70;;;;;;;20.96;36.08;99716.34;4590582;27;20416;-56
2023/12/12 04:21:59;;;;;;;1.60;0.80;;;;;;;20.97;35.81;99712.25;4589740;27;20104;-57
2023/12/12 04:24:10;;;;;;;2.63;0.60;;;;;;;20.95;35.61;99714.66;4587662;27;20040;-57
2023/12/12 04:26:21;;;;;;;0.85;0.60;;;;;;;20.96;35.82;99715.47;4589281;27;20070;-55
2023/12/12 04:28:31;;;;;;;1.15;0.60;;;;;;;20.95;35.89;99711.78;4588508;27;20040;-56
2023/12/12 04:30:41;;;;;;;1.40;0.77;;;;;;;20.96;35.79;99709.75;4587984;27;20044;-57
2023/12/12 04:32:52;;;;;;;1.88;0.80;;;;;;;20.95;35.44;99703.16;4587758;27;20027;-56
2023/12/12 04:35:05;;;;;;;2.65;1.20;;;;;;;20.96;35.43;99704.00;4589839;27;20047;-54
2023/12/12 04:37:16;;;;;;;1.70;0.98;;;;;;;20.95;35.47;99697.44;4586904;27;20048;-56
2023/12/12 04:39:27;;;;;;;1.20;1.08;;;;;;;20.94;35.31;99701.53;4588362;27;20040;-56
2023/12/12 04:41:40;;;;;;;1.63;1.15;;;;;;;20.95;35.57;99697.44;4587330;27;20046;-57
2023/12/12 04:43:51;;;;;;;1.75;0.60;;;;;;;20.95;35.84;99697.44;4587575;27;20122;-56
2023/12/12 04:46:01;;;;;;;1.70;0.95;;;;;;;20.95;35.48;99703.16;4588685;27;20472;-57
2023/12/12 04:48:11;;;;;;;1.13;0.70;;;;;;;20.95;35.53;99706.03;4587927;27;20507;-57
2023/12/12 04:50:22;;;;;;;1.15;0.73;;;;;;;20.94;35.19;99701.53;4587276;27;20036;-56
2023/12/12 04:52:32;;;;;;;1.15;0.80;;;;;;;20.94;35.35;99707.28;4588673;27;20032;-56
2023/12/12 04:54:43;;;;;;;1.08;0.77;;;;;;;20.94;35.38;99701.53;4587840;27;20051;-57
2023/12/12 04:56:53;;;;;;;1.33;0.65;;;;;;;20.93;35.41;99697.00;4587548;27;20036;-56
2023/12/12 04:59:03;;;;;;;1.95;0.73;;;;;;;20.94;35.43;99695.78;4587095;27;20048;-57
2023/12/12 05:01:15;;;;;;;1.00;0.68;;;;;;;20.95;34.92;99691.69;4588096;27;20059;-56
2023/12/12 05:03:26;;;;;;;1.17;0.80;;;;;;;20.94;34.95;99692.09;4578521;27;20591;-56
2023/12/12 05:05:36;;;;;;;0.88;0.60;;;;;;;20.94;35.12;99689.22;4571180;27;20968;-56
2023/12/12 05:07:46;;;;;;;2.83;1.17;;;;;;;20.93;35.23;99688.38;4587078;27;20370;-57
2023/12/12 05:09:57;;;;;;;1.52;1.00;;;;;;;20.94;35.06;99677.75;4587944;27;20066;-58
2023/12/12 05:12:08;;;;;;;1.52;0.77;;;;;;;20.94;34.77;99674.88;4585100;27;21585;-56
2023/12/12 05:14:18;;;;;;;1.45;0.70;;;;;;;20.94;35.04;99678.59;4586022;27;20036;-56
2023/12/12 05:16:29;;;;;;;1.30;0.75;;;;;;;20.94;35.33;99683.47;4587273;27;20586;-56
2023/12/12 05:18:39;;;;;;;2.03;0.70;;;;;;;20.94;35.14;99687.19;4588018;27;20038;-57
2023/12/12 05:20:50;;;;;;;1.48;0.50;;;;;;;20.93;34.83;99682.66;4587484;27;20496;-57
2023/12/12 05:23:01;;;;;;;1.65;0.73;;;;;;;20.95;34.84;99688.81;4586470;27;20032;-56
2023/12/12 05:25:11;;;;;;;1.38;0.70;;;;;;;20.93;34.64;99688.38;4586789;27;20374;-57
2023/12/12 05:27:22;;;;;;;1.27;0.70;;;;;;;20.94;34.62;99689.22;4587861;27;20162;-56
2023/12/12 05:29:32;;;;;;;1.02;0.70;;;;;;;20.94;35.15;99695.78;4586798;27;20169;-55
2023/12/12 05:31:43;;;;;;;1.02;0.70;;;;;;;20.94;34.96;99694.97;4587581;27;20039;-56
2023/12/12 05:33:53;;;;;;;1.50;0.70;;;;;;;20.94;35.01;99701.53;4573003;27;20036;-56
2023/12/12 05:36:04;;;;;;;1.27;0.80;;;;;;;20.93;34.76;99688.38;4587059;27;20071;-58
2023/12/12 05:38:15;;;;;;;0.98;0.70;;;;;;;20.94;34.87;99692.94;4586314;27;20040;-56
2023/12/12 05:40:25;;;;;;;1.33;0.80;;;;;;;20.93;34.70;99688.38;4586868;27;20024;-56
2023/12/12 05:42:36;;;;;;;1.40;0.80;;;;;;;20.94;34.48;99692.94;4586622;27;20638;-57
2023/12/12 05:44:46;;;;;;;1.35;0.90;;;;;;;20.94;34.74;99689.22;4587691;27;23179;-58
2023/12/12 05:46:56;;;;;;;1.23;0.80;;;;;;;20.94;34.74;99692.09;4587187;27;20051;-56
2023/12/12 05:49:09;;;;;;;1.58;0.80;;;;;;;20.93;34.67;99682.66;4587980;27;20066;-57
2023/12/12 05:51:19;;;;;;;1.60;1.00;;;;;;;20.94;34.45;99684.31;4590353;27;20035;-58
2023/12/12 05:53:30;;;;;;;1.30;1.13;;;;;;;20.95;34.02;99691.69;4590940;27;22504;-56
2023/12/12 05:55:40;;;;;;;2.53;1.65;;;;;;;20.93;34.11;99691.25;4591589;27;20048;-56
2023/12/12 05:57:50;;;;;;;2.60;1.35;;;;;;;20.94;33.83;99692.94;4588643;27;20036;-57
2023/12/12 06:00:03;;;;;;;1.50;1.40;;;;;;;20.93;34.13;99681.84;4590807;27;20467;-57
2023/12/12 06:02:22;;;;;;;1.38;1.08;;;;;;;20.93;33.82;99685.53;4589564;27;20598;-56
2023/12/12 06:04:35;;;;;;;2.00;0.80;;;;;;;20.94;33.74;99683.47;4591803;27;20040;-57
2023/12/12 06:06:45;;;;;;;1.80;0.80;;;;;;;20.93;33.75;99682.66;4581554;27;20824;-54
2023/12/12 06:08:56;;;;;;;1.55;0.70;;;;;;;20.94;33.66;99678.59;4589539;27;20044;-56
2023/12/12 06:11:06;;;;;;;1.02;0.50;;;;;;;20.92;33.46;99675.28;4589259;27;23683;-57
2023/12/12 06:13:16;;;;;;;1.00;0.63;;;;;;;20.94;33.33;99678.59;4590490;27;20496;-56
2023/12/12 06:15:28;;;;;;;0.82;0.70;;;;;;;20.93;33.03;99685.53;4591347;27;25155;-56
2023/12/12 06:17:38;;;;;;;1.42;0.80;;;;;;;20.94;33.10;99677.75;4589674;27;20140;-54
2023/12/12 06:19:49;;;;;;;1.15;0.70;;;;;;;20.93;33.07;99682.66;4590556;27;20519;-57
2023/12/12 06:22:01;;;;;;;1.33;0.70;;;;;;;20.94;32.85;99677.75;4592182;27;20028;-56
2023/12/12 06:24:11;;;;;;;1.00;0.70;;;;;;;20.93;33.09;99679.78;4591472;27;20035;-57
2023/12/12 06:26:21;;;;;;;1.10;0.75;;;;;;;20.93;32.55;99676.91;4590818;27;20039;-55
2023/12/12 06:28:33;;;;;;;0.82;0.60;;;;;;;20.93;32.34;99676.91;4590375;27;20501;-56
2023/12/12 06:30:43;;;;;;;1.17;0.80;;;;;;;20.94;32.47;99681.44;4589890;27;20225;-56
2023/12/12 06:32:55;;;;;;;1.20;0.63;;;;;;;20.93;32.08;99688.38;4592059;27;20036;-56
2023/12/12 06:35:06;;;;;;;1.05;0.70;;;;;;;20.92;32.09;99683.88;4589817;27;20032;-56
2023/12/12 06:37:16;;;;;;;1.20;0.70;;;;;;;20.92;32.15;99678.13;4593164;27;20035;-57
2023/12/12 06:39:27;;;;;;;1.23;0.70;;;;;;;20.92;32.17;99686.75;4592434;27;20039;-58
2023/12/12 06:41:37;;;;;;;1.17;0.60;;;;;;;20.92;32.05;99686.75;4589408;27;20036;-56
2023/12/12 06:43:47;;;;;;;1.58;0.82;;;;;;;20.92;31.60;99685.91;4590766;27;20040;-56
2023/12/12 06:45:58;;;;;;;1.67;0.73;;;;;;;20.92;31.64;99688.78;4589795;27;20043;-56
2023/12/12 06:48:08;;;;;;;0.60;0.50;;;;;;;20.92;31.92;99692.47;4590433;27;20409;-56
2023/12/12 06:50:19;;;;;;;1.08;0.68;;;;;;;20.91;31.56;99682.22;4589528;27;20047;-56
2023/12/12 06:52:29;;;;;;;0.85;0.60;;;;;;;20.92;32.21;99681.00;4576970;27;20476;-56
2023/12/12 06:54:39;;;;;;;1.60;0.80;;;;;;;20.92;31.82;99683.88;4590978;27;20516;-56
2023/12/12 06:56:50;;;;;;;0.73;0.70;;;;;;;20.91;32.00;99679.38;4591590;27;20492;-57
2023/12/12 06:59:00;;;;;;;0.82;0.60;;;;;;;20.92;31.47;99681.00;4588322;27;20043;-58
2023/12/12 07:01:12;;;;;;;0.70;0.60;;;;;;;20.92;31.51;99675.28;4590993;27;20507;-56
2023/12/12 07:03:23;;;;;;;1.52;1.00;;;;;;;20.94;31.55;99677.75;4589688;27;20340;-56
2023/12/12 07:05:33;;;;;;;1.48;0.88;;;;;;;20.95;31.45;99677.34;4591381;27;20036;-57
2023/12/12 07:07:44;;;;;;;1.17;0.73;;;;;;;20.96;31.44;99681.06;4589565;27;20095;-57
2023/12/12 07:09:55;;;;;;;1.25;0.73;;;;;;;20.96;31.15;99687.66;4589096;27;20044;-58
2023/12/12 07:12:06;;;;;;;1.20;0.80;;;;;;;20.96;31.33;99673.31;4589853;27;25975;-56
2023/12/12 07:14:16;;;;;;;0.85;0.70;;;;;;;20.96;31.53;99681.94;4589030;27;20772;-56
2023/12/12 07:16:26;;;;;;;0.88;0.70;;;;;;;20.96;31.42;99679.06;4573794;27;20032;-57
2023/12/12 07:18:38;;;;;;;1.50;0.77;;;;;;;20.97;31.33;99679.88;4589826;27;20040;-57
2023/12/12 07:20:48;;;;;;;1.30;1.00;;;;;;;20.97;31.35;99686.44;4591566;27;20054;-53
2023/12/12 07:22:58;;;;;;;1.20;0.90;;;;;;;20.97;30.90;99686.44;4589402;27;20051;-55
2023/12/12 07:25:09;;;;;;;1.73;1.05;;;;;;;20.97;31.10;99679.88;4591231;27;20027;-54
2023/12/12 07:27:19;;;;;;;1.77;0.90;;;;;;;20.96;31.44;99687.66;4589955;27;20048;-53
2023/12/12 07:29:30;;;;;;;1.27;0.90;;;;;;;20.97;30.81;99680.69;4590618;27;20047;-54
2023/12/12 07:31:40;;;;;;;1.90;0.90;;;;;;;20.97;30.82;99689.31;4587843;27;20044;-56
2023/12/12 07:33:50;;;;;;;1.23;1.10;;;;;;;20.97;30.80;99689.31;4589777;27;23823;-55
2023/12/12 07:36:02;;;;;;;1.42;1.10;;;;;;;20.97;30.67;99695.03;4591208;27;20051;-55
2023/12/12 07:38:12;;;;;;;1.52;1.10;;;;;;;20.98;30.65;99690.94;4593204;27;20579;-56
2023/12/12 07:40:22;;;;;;;1.20;1.00;;;;;;;20.98;30.74;99685.19;4593606;27;20043;-57
2023/12/12 07:42:33;;;;;;;2.25;1.20;;;;;;;20.99;31.18;99678.28;4591004;27;20028;-55
2023/12/12 07:44:43;;;;;;;1.65;1.23;;;;;;;20.98;30.54;99685.19;4589743;27;20134;-55
2023/12/12 07:46:53;;;;;;;1.95;1.27;;;;;;;20.98;30.81;99679.47;4589833;27;20046;-56
2023/12/12 07:49:06;;;;;;;1.77;1.45;;;;;;;20.98;30.81;99673.72;4591260;27;20835;-55
2023/12/12 07:51:16;;;;;;;1.52;1.38;;;;;;;20.99;30.90;99686.88;4572132;27;20036;-55
2023/12/12 07:53:26;;;;;;;2.20;1.70;;;;;;;20.99;30.83;99678.28;4590718;27;20067;-56
2023/12/12 07:55:37;;;;;;;2.05;1.48;;;;;;;21.01;31.04;99681.53;4589050;27;20040;-52
2023/12/12 07:57:47;;;;;;;1.88;1.50;;;;;;;20.99;30.97;99675.41;4588845;27;20070;-51
2023/12/12 08:00:16;;;;;;;2.30;1.38;;;;;;;20.99;30.95;99675.41;4590293;27;20031;-55
2023/12/12 08:02:27;;;;;;;2.55;1.58;;;;;;;21.02;30.65;99670.91;4591004;27;20094;-53
2023/12/12 08:04:37;;;;;;;2.08;1.38;;;;;;;21.02;30.52;99671.75;4590546;27;20070;-55
2023/12/12 08:06:48;;;;;;;1.98;1.30;;;;;;;21.02;30.55;99663.13;4589443;27;20048;-55
2023/12/12 08:08:59;;;;;;;2.28;1.40;;;;;;;21.03;30.71;99667.66;4574192;27;20048;-55
2023/12/12 08:11:15;;;;;;;1.70;1.50;;;;;;;21.04;30.52;99668.47;4588083;27;20032;-57
2023/12/12 08:13:27;;;;;;;2.28;1.70;;;;;;;21.04;30.70;99663.53;4590332;27;20955;-56
2023/12/12 08:15:37;;;;;;;2.38;1.73;;;;;;;21.04;30.54;99669.28;4591182;27;20598;-57
2023/12/12 08:17:48;;;;;;;1.75;1.27;;;;;;;21.05;30.69;99664.38;4587850;27;20023;-57
2023/12/12 08:19:58;;;;;;;1.33;0.90;;;;;;;21.05;30.69;99656.63;4588461;27;20092;-59
2023/12/12 08:22:09;;;;;;;1.10;0.85;;;;;;;21.05;30.63;99667.25;4588105;27;27947;-59
2023/12/12 08:24:20;;;;;;;1.45;0.90;;;;;;;21.05;30.37;99659.47;4590952;27;20086;-58
2023/12/12 08:26:38;;;;;;;1.77;1.02;;;;;;;21.04;30.52;99657.81;4589381;27;20031;-58
2023/12/12 08:28:49;;;;;;;1.27;0.80;;;;;;;21.05;30.69;99658.66;4588467;27;20048;-58
2023/12/12 08:30:59;;;;;;;2.85;1.40;;;;;;;21.36;41.91;99658.19;4588985;27;20044;-57
2023/12/12 08:33:10;;;;;;;0.77;0.70;;;;;;;21.14;32.69;99648.50;4589743;27;20028;-58
2023/12/12 08:35:20;;;;;;;1.42;0.80;;;;;;;21.11;31.83;99660.78;4589214;27;20134;-58
2023/12/12 08:37:31;;;;;;;1.13;0.80;;;;;;;21.08;31.55;99650.09;4588031;27;20123;-58
2023/12/12 08:39:41;;;;;;;1.40;0.73;;;;;;;21.08;31.48;99649.25;4589706;27;20043;-58
2023/12/12 08:41:52;;;;;;;1.25;0.73;;;;;;;21.07;31.32;99648.44;4587828;27;20128;-57
2023/12/12 08:44:02;;;;;;;1.52;0.90;;;;;;;21.05;31.27;99652.91;4588683;27;20040;-58
2023/12/12 08:46:13;;;;;;;2.13;1.00;;;;;;;21.04;31.06;99652.06;4587873;27;20085;-58
2023/12/12 08:48:23;;;;;;;1.15;0.77;;;;;;;21.03;31.47;99653.31;4590701;27;20035;-57
2023/12/12 08:50:33;;;;;;;0.80;0.80;;;;;;;21.02;31.37;99645.91;4590037;27;20126;-58
2023/12/12 08:52:45;;;;;;;1.60;0.90;;;;;;;21.03;31.61;99644.69;4588057;27;20086;-58
2023/12/12 08:54:56;;;;;;;1.52;0.88;;;;;;;21.03;31.33;99653.31;4588405;27;20050;-58
2023/12/12 08:57:06;;;;;;;2.33;1.00;;;;;;;21.04;31.87;99648.41;4587637;27;20031;-58
2023/12/12 08:59:18;;;;;;;1.13;1.02;;;;;;;21.03;31.81;99641.81;4588023;27;20535;-58
2023/12/12 09:01:29;;;;;;;1.42;0.88;;;;;;;21.02;31.64;99640.19;4587690;27;20060;-58
2023/12/12 09:03:40;;;;;;;1.38;1.02;;;;;;;21.04;32.21;99643.47;4589186;27;20051;-58
2023/12/12 09:05:50;;;;;;;1.95;1.02;;;;;;;21.03;32.18;99638.97;4589491;27;20119;-58
2023/12/12 09:08:01;;;;;;;0.85;0.75;;;;;;;21.03;32.56;99633.22;4573576;27;20119;-58
2023/12/12 09:10:11;;;;;;;1.65;0.90;;;;;;;21.03;32.67;99627.47;4587941;27;20040;-58
2023/12/12 09:12:22;;;;;;;2.03;1.30;;;;;;;21.03;32.96;99630.34;4586519;27;20051;-58
2023/12/12 09:14:32;;;;;;;2.38;1.13;;;;;;;21.03;32.71;99629.50;4585577;27;20458;-57
2023/12/12 09:16:42;;;;;;;1.95;1.10;;;;;;;21.02;32.83;99627.88;4589193;27;20161;-58
2023/12/12 09:18:53;;;;;;;1.25;1.05;;;;;;;21.02;33.50;99628.72;4586876;27;20039;-56
2023/12/12 09:21:03;;;;;;;1.83;1.10;;;;;;;21.02;33.27;99620.09;4586356;27;20051;-58
2023/12/12 09:23:16;;;;;;;1.40;0.80;;;;;;;21.01;33.24;99615.56;4587288;27;20130;-58
2023/12/12 09:25:26;;;;;;;2.25;1.10;;;;;;;21.00;33.58;99619.66;4588841;27;20032;-58
2023/12/12 09:27:36;;;;;;;1.40;0.90;;;;;;;21.02;33.67;99622.97;4588144;27;20032;-57
2023/12/12 09:29:47;;;;;;;2.13;1.00;;;;;;;21.02;33.18;99617.22;4586824;27;20043;-57
2023/12/12 09:31:57;;;;;;;1.23;0.98;;;;;;;21.02;33.53;99622.13;4589039;27;20495;-58
2023/12/12 09:34:08;;;;;;;1.45;1.00;;;;;;;21.02;33.55;99622.13;4589217;27;20038;-56
2023/12/12 09:36:18;;;;;;;1.27;1.00;;;;;;;21.01;33.27;99604.09;4589414;27;20043;-58
2023/12/12 09:38:29;;;;;;;2.08;0.90;;;;;;;21.03;33.79;99607.41;4587758;27;20032;-58
2023/12/12 09:40:39;;;;;;;1.40;0.95;;;;;;;21.03;34.05;99607.41;4588927;27;20115;-58
2023/12/12 09:42:50;;;;;;;2.00;1.10;;;;;;;21.02;34.51;99602.88;4588216;27;20063;-58
2023/12/12 09:45:03;;;;;;;2.13;1.35;;;;;;;21.04;34.39;99609.03;4590936;27;20036;-58
2023/12/12 09:47:14;;;;;;;1.23;0.90;;;;;;;21.03;35.10;99603.69;4590008;27;20074;-58
2023/12/12 09:49:26;;;;;;;1.50;1.10;;;;;;;21.03;34.70;99589.34;4588831;27;20112;-58
2023/12/12 09:51:39;;;;;;;1.83;1.15;;;;;;;21.03;35.09;99595.91;4587518;27;20032;-58
2023/12/12 09:53:50;;;;;;;1.67;1.00;;;;;;;21.04;34.83;99588.16;4588456;27;20568;-58
2023/12/12 09:56:05;;;;;;;1.50;1.15;;;;;;;21.03;34.81;99583.59;4588729;27;20040;-56
2023/12/12 09:58:15;;;;;;;2.08;1.35;;;;;;;21.04;35.15;99580.34;4587499;27;20073;-56
2023/12/12 10:00:26;;;;;;;2.17;1.33;;;;;;;21.05;35.25;99582.00;4589938;27;20076;-56
2023/12/12 10:02:37;;;;;;;1.70;1.42;;;;;;;21.06;34.94;99572.19;4588808;27;20058;-55
2023/12/12 10:04:49;;;;;;;1.58;1.20;;;;;;;21.07;35.15;99567.28;4586456;27;20034;-56
2023/12/12 10:07:03;;;;;;;1.90;1.27;;;;;;;21.06;35.21;99569.31;4589301;27;20044;-55
2023/12/12 10:09:13;;;;;;;3.13;1.45;;;;;;;21.07;35.54;99567.28;4588685;27;20599;-58
2023/12/12 10:11:24;;;;;;;1.92;1.30;;;;;;;21.06;35.77;99552.09;4587596;27;20040;-57
2023/12/12 10:13:50;;;;;;;2.65;1.52;;;;;;;21.07;35.48;99545.16;4588942;27;20514;-57
2023/12/12 10:16:13;;;;;;;3.05;1.50;;;;;;;21.06;36.09;99546.34;4587570;27;20049;-57